首页
METAR-TAF:

METAR-TAF

机场 :

Peachtree City Airport (Falcon Field)

亚特兰大, 喬治亞, 美国

纬度: 33-21-19N, 经度: 084-34-01W, 海拔: 246米

当前天气观测

该预报发布于27分钟前的00:23 UTC
风速5节,风向西北
温度 6°C
湿度 87%
气压 1022 hPa
能見度: 16.1公里
多云层高于1000英尺
多云层高于3400英尺
阴天层高于8000英尺

METAR: KFFC 110023Z AUTO 32005KT 10SM BKN010 BKN034 OVC080 06/04 A3017 RMK AO2 CIG 008V012 T00560039

时间: 19:50 (00:50 UTC)


TAF: 丢失

超过4000个机场的气象观测和天气预报(METAR&TAF报告)。

可查询的气象台以黄色和红色小点在地图上表示。

将鼠标移到小点上方,可查看气象台名称。

然后点击查看天气观测和预报。

如需切换地图:点击带黑十字的绿色按钮放大地图;点击带横线的绿色按钮缩小地图;或者点击绿色箭头查看邻近地区的地图。


METAR-TAF: